METAR TAF

[Source: ADDS]
METAR
LFCR 011000Z AUTO 12017KT CAVOK 11/03 Q1016 =
LFBA 011000Z AUTO 12015KT 090V150 9999 BKN035 OVC110 15/07 Q1015 =
LFSL 011000Z AUTO 13008KT 090V190 CAVOK 14/04 Q1016 =
LFLW 010930Z AUTO 14009KT 100V180 9999 ////// 10/03 Q1016 =
TAF
SR / SS: 05:34 / 18:21 UTC (LFCC 2020-04-01)